sensor_id;sensor_type;location;lat;lon;timestamp;pressure;altitude;pressure_sealevel;temperature;humidity
51081;BME280;37130;55.670;37.596;2023-07-13T00:00:28;98571.09;;;13.48;71.45
51081;BME280;37130;55.670;37.596;2023-07-13T00:02:56;98528.91;;;13.19;71.09
51081;BME280;37130;55.670;37.596;2023-07-13T00:05:24;98577.16;;;13.50;71.07
51081;BME280;37130;55.670;37.596;2023-07-13T00:07:51;98575.44;;;13.49;71.44
51081;BME280;37130;55.670;37.596;2023-07-13T00:10:19;98573.66;;;13.49;71.36
51081;BME280;37130;55.670;37.596;2023-07-13T00:12:47;98573.66;;;13.49;71.49
51081;BME280;37130;55.670;37.596;2023-07-13T00:15:21;98578.97;;;13.49;71.56
51081;BME280;37130;55.670;37.596;2023-07-13T00:17:51;98578.84;;;13.51;71.34
51081;BME280;37130;55.670;37.596;2023-07-13T00:20:21;98576.31;;;13.49;71.67
51081;BME280;37130;55.670;37.596;2023-07-13T00:22:49;98581.50;;;13.51;71.71
51081;BME280;37130;55.670;37.596;2023-07-13T00:25:16;98578.09;;;13.49;71.56
51081;BME280;37130;55.670;37.596;2023-07-13T00:27:47;98511.91;;;12.98;71.54
51081;BME280;37130;55.670;37.596;2023-07-13T00:30:16;98588.03;;;13.47;71.64
51081;BME280;37130;55.670;37.596;2023-07-13T00:32:44;98583.66;;;13.46;71.91
51081;BME280;37130;55.670;37.596;2023-07-13T00:35:14;98577.72;;;13.42;71.93
51081;BME280;37130;55.670;37.596;2023-07-13T00:37:42;98577.59;;;13.44;71.67
51081;BME280;37130;55.670;37.596;2023-07-13T00:40:11;98480.72;;;12.88;71.48
51081;BME280;37130;55.670;37.596;2023-07-13T00:42:40;98584.88;;;13.42;71.67
51081;BME280;37130;55.670;37.596;2023-07-13T00:47:40;98469.81;;;12.80;71.97
51081;BME280;37130;55.670;37.596;2023-07-13T00:50:13;98578.34;;;13.46;71.91
51081;BME280;37130;55.670;37.596;2023-07-13T00:52:44;98579.31;;;13.45;72.08
51081;BME280;37130;55.670;37.596;2023-07-13T00:55:12;98585.47;;;13.45;71.84
51081;BME280;37130;55.670;37.596;2023-07-13T00:57:42;98543.03;;;13.20;72.07
51081;BME280;37130;55.670;37.596;2023-07-13T01:00:10;98583.78;;;13.44;71.99
51081;BME280;37130;55.670;37.596;2023-07-13T01:02:41;98578.56;;;13.43;72.17
51081;BME280;37130;55.670;37.596;2023-07-13T01:05:11;98576.53;;;13.46;72.07
51081;BME280;37130;55.670;37.596;2023-07-13T01:07:40;98575.69;;;13.46;72.26
51081;BME280;37130;55.670;37.596;2023-07-13T01:10:09;98571.34;;;13.45;72.40
51081;BME280;37130;55.670;37.596;2023-07-13T01:12:37;98583.41;;;13.49;72.10
51081;BME280;37130;55.670;37.596;2023-07-13T01:15:06;98542.69;;;13.24;72.38
51081;BME280;37130;55.670;37.596;2023-07-13T01:17:53;98578.22;;;13.47;72.45
51081;BME280;37130;55.670;37.596;2023-07-13T01:20:22;98578.22;;;13.47;72.39
51081;BME280;37130;55.670;37.596;2023-07-13T01:22:49;98520.53;;;13.12;72.34
51081;BME280;37130;55.670;37.596;2023-07-13T01:25:18;98576.53;;;13.46;72.59
51081;BME280;37130;55.670;37.596;2023-07-13T01:27:46;98579.06;;;13.48;72.37
51081;BME280;37130;55.670;37.596;2023-07-13T01:30:13;98572.06;;;13.47;72.24
51081;BME280;37130;55.670;37.596;2023-07-13T01:32:41;98570.34;;;13.46;72.38
51081;BME280;37130;55.670;37.596;2023-07-13T01:35:09;98566.00;;;13.45;72.38
51081;BME280;37130;55.670;37.596;2023-07-13T01:37:37;98563.47;;;13.43;72.88
51081;BME280;37130;55.670;37.596;2023-07-13T01:40:05;98564.78;;;13.49;72.42
51081;BME280;37130;55.670;37.596;2023-07-13T01:42:32;98444.22;;;12.79;72.55
51081;BME280;37130;55.670;37.596;2023-07-13T01:45:00;98561.28;;;13.48;72.43
51081;BME280;37130;55.670;37.596;2023-07-13T01:47:30;98552.94;;;13.42;72.74
51081;BME280;37130;55.670;37.596;2023-07-13T01:49:58;98567.34;;;13.50;72.56
51081;BME280;37130;55.670;37.596;2023-07-13T01:52:25;98551.63;;;13.47;72.52
51081;BME280;37130;55.670;37.596;2023-07-13T01:54:52;98549.72;;;13.49;72.66
51081;BME280;37130;55.670;37.596;2023-07-13T01:57:20;98550.56;;;13.50;72.65
51081;BME280;37130;55.670;37.596;2023-07-13T01:59:47;98496.91;;;13.21;72.55
51081;BME280;37130;55.670;37.596;2023-07-13T02:02:15;98553.72;;;13.55;72.51
51081;BME280;37130;55.670;37.596;2023-07-13T02:04:43;98548.25;;;13.56;72.50
51081;BME280;37130;55.670;37.596;2023-07-13T02:07:10;98552.63;;;13.57;72.38
51081;BME280;37130;55.670;37.596;2023-07-13T02:09:38;98548.00;;;13.59;72.40
51081;BME280;37130;55.670;37.596;2023-07-13T02:12:06;98544.16;;;13.64;72.21
51081;BME280;37130;55.670;37.596;2023-07-13T02:14:34;98544.06;;;13.65;72.64
51081;BME280;37130;55.670;37.596;2023-07-13T02:17:03;98547.31;;;13.69;72.90
51081;BME280;37130;55.670;37.596;2023-07-13T02:19:31;98541.00;;;13.70;72.44
51081;BME280;37130;55.670;37.596;2023-07-13T02:21:59;98548.06;;;13.82;72.38
51081;BME280;37130;55.670;37.596;2023-07-13T02:24:26;98543.47;;;13.84;72.51
51081;BME280;37130;55.670;37.596;2023-07-13T02:26:54;98551.81;;;13.91;71.83
51081;BME280;37130;55.670;37.596;2023-07-13T02:29:22;98551.84;;;14.02;71.42
51081;BME280;37130;55.670;37.596;2023-07-13T02:31:50;98552.91;;;14.11;72.09
51081;BME280;37130;55.670;37.596;2023-07-13T02:34:17;98485.88;;;13.83;71.31
51081;BME280;37130;55.670;37.596;2023-07-13T02:36:44;98534.25;;;14.22;71.52
51081;BME280;37130;55.670;37.596;2023-07-13T02:39:13;98542.47;;;14.30;71.44
51081;BME280;37130;55.670;37.596;2023-07-13T02:41:41;98538.38;;;14.37;70.89
51081;BME280;37130;55.670;37.596;2023-07-13T02:44:12;98531.22;;;14.38;70.91
51081;BME280;37130;55.670;37.596;2023-07-13T02:46:40;98529.16;;;14.41;70.32
51081;BME280;37130;55.670;37.596;2023-07-13T02:49:08;98527.94;;;14.45;70.57
51081;BME280;37130;55.670;37.596;2023-07-13T02:51:35;98522.34;;;14.48;70.51
51081;BME280;37130;55.670;37.596;2023-07-13T02:54:04;98530.22;;;14.50;70.22
51081;BME280;37130;55.670;37.596;2023-07-13T02:56:32;98526.59;;;14.51;70.41
51081;BME280;37130;55.670;37.596;2023-07-13T02:59:00;98532.06;;;14.50;70.59
51081;BME280;37130;55.670;37.596;2023-07-13T03:01:28;98530.22;;;14.50;70.54
51081;BME280;37130;55.670;37.596;2023-07-13T03:03:56;98489.81;;;14.22;70.41
51081;BME280;37130;55.670;37.596;2023-07-13T03:06:23;98531.31;;;14.47;70.78
51081;BME280;37130;55.670;37.596;2023-07-13T03:08:53;98531.31;;;14.47;71.03
51081;BME280;37130;55.670;37.596;2023-07-13T03:11:22;98526.25;;;14.44;70.67
51081;BME280;37130;55.670;37.596;2023-07-13T03:13:57;98482.13;;;14.08;70.64
51081;BME280;37130;55.670;37.596;2023-07-13T03:16:26;98532.94;;;14.39;70.82
51081;BME280;37130;55.670;37.596;2023-07-13T03:18:53;98527.72;;;14.37;71.39
51081;BME280;37130;55.670;37.596;2023-07-13T03:21:22;98474.63;;;14.02;71.33
51081;BME280;37130;55.670;37.596;2023-07-13T03:23:50;98478.97;;;14.03;71.43
51081;BME280;37130;55.670;37.596;2023-07-13T03:26:19;98528.69;;;14.36;71.24
51081;BME280;37130;55.670;37.596;2023-07-13T03:28:48;98483.69;;;14.11;70.89
51081;BME280;37130;55.670;37.596;2023-07-13T03:31:26;98533.41;;;14.44;71.39
51081;BME280;37130;55.670;37.596;2023-07-13T03:33:56;98530.88;;;14.20;71.38
51081;BME280;37130;55.670;37.596;2023-07-13T03:36:28;98532.94;;;14.39;71.25
51081;BME280;37130;55.670;37.596;2023-07-13T03:39:02;98533.41;;;14.44;71.02
51081;BME280;37130;55.670;37.596;2023-07-13T03:41:39;98535.81;;;14.47;70.98
51081;BME280;37130;55.670;37.596;2023-07-13T03:44:07;98531.06;;;14.51;70.77
51081;BME280;37130;55.670;37.596;2023-07-13T03:46:34;98539.72;;;14.54;70.70
51081;BME280;37130;55.670;37.596;2023-07-13T03:49:04;98535.69;;;14.60;70.81
51081;BME280;37130;55.670;37.596;2023-07-13T03:51:32;98495.38;;;14.42;70.61
51081;BME280;37130;55.670;37.596;2023-07-13T03:54:00;98544.59;;;14.81;70.17
51081;BME280;37130;55.670;37.596;2023-07-13T03:56:28;98472.81;;;14.46;70.12
51081;BME280;37130;55.670;37.596;2023-07-13T03:58:56;98503.91;;;14.79;70.11
51081;BME280;37130;55.670;37.596;2023-07-13T04:01:24;98541.34;;;15.10;69.78
51081;BME280;37130;55.670;37.596;2023-07-13T04:03:52;98541.91;;;15.25;69.16
51081;BME280;37130;55.670;37.596;2023-07-13T04:06:26;98484.31;;;15.01;68.97
51081;BME280;37130;55.670;37.596;2023-07-13T04:08:56;98536.16;;;15.50;68.19
51081;BME280;37130;55.670;37.596;2023-07-13T04:11:27;98542.75;;;15.67;68.24
51081;BME280;37130;55.670;37.596;2023-07-13T04:13:55;98496.00;;;15.52;67.78
51081;BME280;37130;55.670;37.596;2023-07-13T04:16:23;98550.22;;;15.94;67.50
51081;BME280;37130;55.670;37.596;2023-07-13T04:18:51;98550.41;;;16.03;66.94
51081;BME280;37130;55.670;37.596;2023-07-13T04:21:22;98557.03;;;16.08;67.04
51081;BME280;37130;55.670;37.596;2023-07-13T04:23:50;98514.94;;;15.91;67.00
51081;BME280;37130;55.670;37.596;2023-07-13T04:26:18;98507.22;;;15.97;66.57
51081;BME280;37130;55.670;37.596;2023-07-13T04:28:49;98554.06;;;16.32;66.65
51081;BME280;37130;55.670;37.596;2023-07-13T04:31:17;98547.44;;;16.36;66.65
51081;BME280;37130;55.670;37.596;2023-07-13T04:33:45;98541.81;;;16.39;66.34
51081;BME280;37130;55.670;37.596;2023-07-13T04:36:17;98536.63;;;16.38;66.00
51081;BME280;37130;55.670;37.596;2023-07-13T04:38:45;98539.16;;;16.39;66.26
51081;BME280;37130;55.670;37.596;2023-07-13T04:41:13;98538.31;;;16.39;65.91
51081;BME280;37130;55.670;37.596;2023-07-13T04:43:42;98492.09;;;16.08;66.04
51081;BME280;37130;55.670;37.596;2023-07-13T04:46:12;98527.75;;;16.28;66.14
51081;BME280;37130;55.670;37.596;2023-07-13T04:48:41;98504.22;;;16.12;66.43
51081;BME280;37130;55.670;37.596;2023-07-13T04:51:09;98529.81;;;16.24;66.16
51081;BME280;37130;55.670;37.596;2023-07-13T04:53:36;98538.56;;;16.26;66.44
51081;BME280;37130;55.670;37.596;2023-07-13T04:56:04;98537.59;;;16.27;65.94
51081;BME280;37130;55.670;37.596;2023-07-13T04:58:32;98537.88;;;16.34;66.05
51081;BME280;37130;55.670;37.596;2023-07-13T05:01:04;98463.81;;;16.05;66.00
51081;BME280;37130;55.670;37.596;2023-07-13T05:03:33;98544.94;;;16.85;65.27
51081;BME280;37130;55.670;37.596;2023-07-13T05:06:04;98535.06;;;17.34;64.77
51081;BME280;37130;55.670;37.596;2023-07-13T05:08:33;98532.44;;;18.01;63.21
51081;BME280;37130;55.670;37.596;2023-07-13T05:11:01;98526.63;;;19.06;60.94
51081;BME280;37130;55.670;37.596;2023-07-13T05:13:29;98522.19;;;19.77;58.62
51081;BME280;37130;55.670;37.596;2023-07-13T05:16:02;98544.97;;;20.25;58.00
51081;BME280;37130;55.670;37.596;2023-07-13T05:18:31;98545.94;;;20.50;57.10
51081;BME280;37130;55.670;37.596;2023-07-13T05:21:00;98542.63;;;20.64;56.33
51081;BME280;37130;55.670;37.596;2023-07-13T05:23:30;98527.84;;;20.60;56.07
51081;BME280;37130;55.670;37.596;2023-07-13T05:25:57;98548.31;;;21.12;55.19
51081;BME280;37130;55.670;37.596;2023-07-13T05:28:26;98557.88;;;22.21;53.59
51081;BME280;37130;55.670;37.596;2023-07-13T05:30:55;98549.63;;;23.01;51.72
51081;BME280;37130;55.670;37.596;2023-07-13T05:33:23;98551.66;;;22.99;50.45
51081;BME280;37130;55.670;37.596;2023-07-13T05:35:51;98547.66;;;22.47;51.52
51081;BME280;37130;55.670;37.596;2023-07-13T05:38:19;98514.59;;;21.98;52.26
51081;BME280;37130;55.670;37.596;2023-07-13T05:40:47;98558.72;;;22.21;51.81
51081;BME280;37130;55.670;37.596;2023-07-13T05:43:14;98538.78;;;22.39;51.58
51081;BME280;37130;55.670;37.596;2023-07-13T05:45:43;98545.44;;;22.99;50.92
51081;BME280;37130;55.670;37.596;2023-07-13T05:48:11;98555.28;;;24.28;48.68
51081;BME280;37130;55.670;37.596;2023-07-13T05:50:38;98555.34;;;26.01;45.74
51081;BME280;37130;55.670;37.596;2023-07-13T05:53:06;98544.66;;;26.63;44.31
51081;BME280;37130;55.670;37.596;2023-07-13T05:55:34;98512.97;;;26.77;43.47
51081;BME280;37130;55.670;37.596;2023-07-13T05:58:01;98548.81;;;26.59;43.21
51081;BME280;37130;55.670;37.596;2023-07-13T06:00:29;98553.50;;;26.02;43.75
51081;BME280;37130;55.670;37.596;2023-07-13T06:02:56;98556.69;;;25.63;44.12
51081;BME280;37130;55.670;37.596;2023-07-13T06:05:26;98511.00;;;25.38;43.67
51081;BME280;37130;55.670;37.596;2023-07-13T06:07:56;98518.22;;;25.80;43.34
51081;BME280;37130;55.670;37.596;2023-07-13T06:10:24;98549.47;;;26.26;42.71
51081;BME280;37130;55.670;37.596;2023-07-13T06:12:51;98552.59;;;26.23;42.33
51081;BME280;37130;55.670;37.596;2023-07-13T06:15:19;98544.50;;;26.01;42.49
51081;BME280;37130;55.670;37.596;2023-07-13T06:17:46;98542.34;;;25.90;42.00
51081;BME280;37130;55.670;37.596;2023-07-13T06:20:14;98528.53;;;25.85;42.24
51081;BME280;37130;55.670;37.596;2023-07-13T06:22:42;98532.00;;;25.79;41.79
51081;BME280;37130;55.670;37.596;2023-07-13T06:25:10;98533.66;;;25.80;41.85
51081;BME280;37130;55.670;37.596;2023-07-13T06:27:37;98527.34;;;25.94;41.25
51081;BME280;37130;55.670;37.596;2023-07-13T06:30:05;98529.34;;;26.14;41.29
51081;BME280;37130;55.670;37.596;2023-07-13T06:32:33;98525.94;;;26.40;40.81
51081;BME280;37130;55.670;37.596;2023-07-13T06:35:00;98531.41;;;26.47;39.60
51081;BME280;37130;55.670;37.596;2023-07-13T06:37:29;98523.66;;;26.43;40.19
51081;BME280;37130;55.670;37.596;2023-07-13T06:39:57;98523.13;;;26.61;39.35
51081;BME280;37130;55.670;37.596;2023-07-13T06:42:24;98532.66;;;26.92;39.13
51081;BME280;37130;55.670;37.596;2023-07-13T06:44:51;98478.50;;;26.91;38.61
51081;BME280;37130;55.670;37.596;2023-07-13T06:47:19;98512.06;;;27.44;38.54
51081;BME280;37130;55.670;37.596;2023-07-13T06:49:46;98523.38;;;27.41;37.88
51081;BME280;37130;55.670;37.596;2023-07-13T06:52:13;98523.91;;;27.17;37.69
51081;BME280;37130;55.670;37.596;2023-07-13T06:54:41;98523.19;;;26.75;38.96
51081;BME280;37130;55.670;37.596;2023-07-13T06:57:08;98527.34;;;26.29;39.20
51081;BME280;37130;55.670;37.596;2023-07-13T06:59:36;98527.81;;;25.76;39.40
51081;BME280;37130;55.670;37.596;2023-07-13T07:02:03;98527.91;;;25.19;40.02
51081;BME280;37130;55.670;37.596;2023-07-13T07:04:31;98530.47;;;24.54;40.94
51081;BME280;37130;55.670;37.596;2023-07-13T07:06:58;98519.44;;;23.81;41.52
51081;BME280;37130;55.670;37.596;2023-07-13T07:09:26;98530.06;;;23.22;42.66
51081;BME280;37130;55.670;37.596;2023-07-13T07:11:54;98509.13;;;22.70;43.54
51081;BME280;37130;55.670;37.596;2023-07-13T07:14:30;98512.31;;;22.34;44.28
51081;BME280;37130;55.670;37.596;2023-07-13T07:16:58;98515.91;;;22.10;44.67
51081;BME280;37130;55.670;37.596;2023-07-13T07:19:29;98513.81;;;21.81;45.59
51081;BME280;37130;55.670;37.596;2023-07-13T07:21:56;98518.06;;;21.59;45.55
51081;BME280;37130;55.670;37.596;2023-07-13T07:24:24;98479.13;;;21.29;46.16
51081;BME280;37130;55.670;37.596;2023-07-13T07:26:52;98525.94;;;21.77;45.80
51081;BME280;37130;55.670;37.596;2023-07-13T07:29:22;98522.38;;;22.01;45.74
51081;BME280;37130;55.670;37.596;2023-07-13T07:31:55;98528.50;;;22.34;44.89
51081;BME280;37130;55.670;37.596;2023-07-13T07:34:25;98524.63;;;22.37;44.30
51081;BME280;37130;55.670;37.596;2023-07-13T07:36:53;98534.53;;;22.44;44.50
51081;BME280;37130;55.670;37.596;2023-07-13T07:39:24;98534.06;;;22.41;44.38
51081;BME280;37130;55.670;37.596;2023-07-13T07:41:51;98534.25;;;22.31;45.19
51081;BME280;37130;55.670;37.596;2023-07-13T07:44:23;98526.34;;;22.13;45.25
51081;BME280;37130;55.670;37.596;2023-07-13T07:46:51;98539.72;;;21.98;45.66
51081;BME280;37130;55.670;37.596;2023-07-13T07:49:18;98546.63;;;21.93;45.18
51081;BME280;37130;55.670;37.596;2023-07-13T07:51:46;98549.69;;;21.81;45.49
51081;BME280;37130;55.670;37.596;2023-07-13T07:54:13;98545.16;;;21.57;45.91
51081;BME280;37130;55.670;37.596;2023-07-13T07:56:49;98546.47;;;21.29;47.01
51081;BME280;37130;55.670;37.596;2023-07-13T07:59:20;98549.66;;;21.08;47.47
51081;BME280;37130;55.670;37.596;2023-07-13T08:01:50;98534.63;;;20.89;48.55
51081;BME280;37130;55.670;37.596;2023-07-13T08:04:21;98541.81;;;20.72;48.74
51081;BME280;37130;55.670;37.596;2023-07-13T08:06:51;98543.44;;;20.56;49.53
51081;BME280;37130;55.670;37.596;2023-07-13T08:09:18;98533.28;;;20.42;50.21
51081;BME280;37130;55.670;37.596;2023-07-13T08:11:46;98533.56;;;20.23;49.73
51081;BME280;37130;55.670;37.596;2023-07-13T08:14:17;98546.03;;;20.06;50.31
51081;BME280;37130;55.670;37.596;2023-07-13T08:16:44;98539.56;;;19.90;50.21
51081;BME280;37130;55.670;37.596;2023-07-13T08:19:12;98546.47;;;19.93;51.18
51081;BME280;37130;55.670;37.596;2023-07-13T08:21:39;98542.94;;;19.92;51.21
51081;BME280;37130;55.670;37.596;2023-07-13T08:24:06;98505.94;;;19.60;51.23
51081;BME280;37130;55.670;37.596;2023-07-13T08:26:34;98550.13;;;19.84;51.36
51081;BME280;37130;55.670;37.596;2023-07-13T08:29:02;98545.31;;;19.96;51.38
51081;BME280;37130;55.670;37.596;2023-07-13T08:31:30;98544.19;;;20.06;51.21
51081;BME280;37130;55.670;37.596;2023-07-13T08:33:57;98542.28;;;20.25;51.15
51081;BME280;37130;55.670;37.596;2023-07-13T08:36:25;98535.09;;;20.33;51.86
51081;BME280;37130;55.670;37.596;2023-07-13T08:38:53;98539.47;;;20.34;51.93
51081;BME280;37130;55.670;37.596;2023-07-13T08:41:21;98555.56;;;20.26;51.15
51081;BME280;37130;55.670;37.596;2023-07-13T08:43:51;98542.72;;;20.12;51.01
51081;BME280;37130;55.670;37.596;2023-07-13T08:46:36;98484.22;;;19.72;50.85
51081;BME280;37130;55.670;37.596;2023-07-13T08:49:12;98540.03;;;20.12;51.74
51081;BME280;37130;55.670;37.596;2023-07-13T08:51:52;98538.94;;;19.97;51.85
51081;BME280;37130;55.670;37.596;2023-07-13T08:54:34;98547.13;;;19.87;52.75
51081;BME280;37130;55.670;37.596;2023-07-13T08:57:15;98562.13;;;19.72;53.34
51081;BME280;37130;55.670;37.596;2023-07-13T08:59:43;98562.16;;;19.62;53.69
51081;BME280;37130;55.670;37.596;2023-07-13T09:05:02;98569.03;;;19.74;54.58
51081;BME280;37130;55.670;37.596;2023-07-13T09:08:26;98515.81;;;19.78;53.78
51081;BME280;37130;55.670;37.596;2023-07-13T09:13:37;98564.16;;;20.64;53.87
51081;BME280;37130;55.670;37.596;2023-07-13T09:16:07;98562.88;;;20.85;54.32
51081;BME280;37130;55.670;37.596;2023-07-13T09:18:46;98566.28;;;20.95;53.54
51081;BME280;37130;55.670;37.596;2023-07-13T09:21:31;98566.28;;;20.95;54.08
51081;BME280;37130;55.670;37.596;2023-07-13T09:24:39;98576.69;;;20.90;54.15
51081;BME280;37130;55.670;37.596;2023-07-13T09:27:22;98526.25;;;20.49;55.00
51081;BME280;37130;55.670;37.596;2023-07-13T09:29:58;98588.44;;;20.81;55.67
51081;BME280;37130;55.670;37.596;2023-07-13T09:32:31;98587.75;;;20.70;55.65
51081;BME280;37130;55.670;37.596;2023-07-13T09:35:00;98590.22;;;20.64;55.54
51081;BME280;37130;55.670;37.596;2023-07-13T09:37:31;98577.97;;;20.35;56.42
51081;BME280;37130;55.670;37.596;2023-07-13T09:40:01;98585.84;;;20.28;56.49
51081;BME280;37130;55.670;37.596;2023-07-13T09:42:32;98589.78;;;20.16;57.13
51081;BME280;37130;55.670;37.596;2023-07-13T09:45:01;98511.41;;;19.51;57.47
51081;BME280;37130;55.670;37.596;2023-07-13T09:47:39;98588.72;;;19.83;58.48
51081;BME280;37130;55.670;37.596;2023-07-13T09:50:10;98579.31;;;19.61;59.32
51081;BME280;37130;55.670;37.596;2023-07-13T09:52:49;98585.84;;;19.40;59.58
51081;BME280;37130;55.670;37.596;2023-07-13T09:55:25;98585.22;;;19.11;60.12
51081;BME280;37130;55.670;37.596;2023-07-13T09:57:54;98592.09;;;18.95;60.56
51081;BME280;37130;55.670;37.596;2023-07-13T10:00:28;98595.03;;;18.74;61.31
51081;BME280;37130;55.670;37.596;2023-07-13T10:03:05;98555.16;;;18.34;61.90
51081;BME280;37130;55.670;37.596;2023-07-13T10:05:44;98532.13;;;18.04;62.16
51081;BME280;37130;55.670;37.596;2023-07-13T10:08:24;98593.84;;;18.22;63.17
51081;BME280;37130;55.670;37.596;2023-07-13T10:10:54;98588.09;;;18.16;63.51
51081;BME280;37130;55.670;37.596;2023-07-13T10:13:35;98587.25;;;18.06;63.64
51081;BME280;37130;55.670;37.596;2023-07-13T10:16:06;98553.63;;;17.74;63.70
51081;BME280;37130;55.670;37.596;2023-07-13T10:18:54;98585.88;;;17.73;64.28
51081;BME280;37130;55.670;37.596;2023-07-13T10:21:27;98583.25;;;17.63;65.08
51081;BME280;37130;55.670;37.596;2023-07-13T10:24:21;98585.63;;;17.47;64.96
51081;BME280;37130;55.670;37.596;2023-07-13T10:29:20;98597.63;;;17.33;65.91
51081;BME280;37130;55.670;37.596;2023-07-13T10:31:49;98588.47;;;17.26;66.14
51081;BME280;37130;55.670;37.596;2023-07-13T10:34:17;98547.34;;;16.98;66.42
51081;BME280;37130;55.670;37.596;2023-07-13T10:36:47;98582.41;;;17.14;66.78
51081;BME280;37130;55.670;37.596;2023-07-13T10:39:19;98596.06;;;17.21;66.84
51081;BME280;37130;55.670;37.596;2023-07-13T10:41:52;98587.47;;;17.17;67.25
51081;BME280;37130;55.670;37.596;2023-07-13T10:44:32;98581.56;;;17.04;67.54
51081;BME280;37130;55.670;37.596;2023-07-13T10:47:05;98581.97;;;16.99;67.95
51081;BME280;37130;55.670;37.596;2023-07-13T10:49:34;98595.22;;;17.01;68.05
51081;BME280;37130;55.670;37.596;2023-07-13T10:52:04;98609.97;;;16.95;68.62
51081;BME280;37130;55.670;37.596;2023-07-13T10:54:33;98601.66;;;16.89;68.62
51081;BME280;37130;55.670;37.596;2023-07-13T10:57:15;98605.44;;;16.86;68.62
51081;BME280;37130;55.670;37.596;2023-07-13T11:00:12;98604.00;;;16.82;68.83
51081;BME280;37130;55.670;37.596;2023-07-13T11:02:39;98592.44;;;16.72;69.02
51081;BME280;37130;55.670;37.596;2023-07-13T11:05:28;98601.28;;;16.62;69.11
51081;BME280;37130;55.670;37.596;2023-07-13T11:08:19;98601.16;;;16.64;69.45
51081;BME280;37130;55.670;37.596;2023-07-13T11:10:55;98603.78;;;16.54;69.81
51081;BME280;37130;55.670;37.596;2023-07-13T11:18:49;98596.09;;;16.30;70.65
51081;BME280;37130;55.670;37.596;2023-07-13T11:21:19;98594.53;;;16.28;70.83
51081;BME280;37130;55.670;37.596;2023-07-13T11:32:01;98592.72;;;16.28;72.05
51081;BME280;37130;55.670;37.596;2023-07-13T11:34:47;98591.91;;;16.37;71.99
51081;BME280;37130;55.670;37.596;2023-07-13T11:37:17;98576.56;;;16.39;72.25
51081;BME280;37130;55.670;37.596;2023-07-13T11:39:46;98582.06;;;16.38;72.29
51081;BME280;37130;55.670;37.596;2023-07-13T11:42:17;98573.31;;;16.36;72.42
51081;BME280;37130;55.670;37.596;2023-07-13T11:44:50;98570.25;;;16.40;72.72
51081;BME280;37130;55.670;37.596;2023-07-13T11:47:40;98575.06;;;16.47;72.83
51081;BME280;37130;55.670;37.596;2023-07-13T11:50:19;98581.56;;;16.54;72.76
51081;BME280;37130;55.670;37.596;2023-07-13T11:52:48;98573.81;;;16.60;73.34
51081;BME280;37130;55.670;37.596;2023-07-13T11:55:19;98572.97;;;16.60;73.23
51081;BME280;37130;55.670;37.596;2023-07-13T11:57:55;98537.16;;;16.32;72.90
51081;BME280;37130;55.670;37.596;2023-07-13T12:00:28;98577.06;;;16.54;72.75
51081;BME280;37130;55.670;37.596;2023-07-13T12:03:00;98585.34;;;16.51;73.04
51081;BME280;37130;55.670;37.596;2023-07-13T12:05:29;98581.41;;;16.46;72.85
51081;BME280;37130;55.670;37.596;2023-07-13T12:08:08;98582.50;;;16.43;73.10
51081;BME280;37130;55.670;37.596;2023-07-13T12:10:59;98548.94;;;16.19;73.00
51081;BME280;37130;55.670;37.596;2023-07-13T12:13:27;98486.25;;;15.83;73.07
51081;BME280;37130;55.670;37.596;2023-07-13T12:15:57;98589.38;;;16.36;73.21
51081;BME280;37130;55.670;37.596;2023-07-13T12:18:29;98588.19;;;16.29;73.08
51081;BME280;37130;55.670;37.596;2023-07-13T12:20:59;98580.34;;;16.27;73.24
51081;BME280;37130;55.670;37.596;2023-07-13T12:25:57;98587.59;;;16.15;73.79
51081;BME280;37130;55.670;37.596;2023-07-13T12:31:01;98575.50;;;16.21;74.37
51081;BME280;37130;55.670;37.596;2023-07-13T12:33:30;98581.03;;;16.29;74.26
51081;BME280;37130;55.670;37.596;2023-07-13T12:36:05;98577.00;;;16.35;73.86
51081;BME280;37130;55.670;37.596;2023-07-13T12:38:33;98575.31;;;16.43;73.94
51081;BME280;37130;55.670;37.596;2023-07-13T12:41:01;98566.31;;;16.44;73.56
51081;BME280;37130;55.670;37.596;2023-07-13T12:43:33;98567.59;;;16.40;74.24
51081;BME280;37130;55.670;37.596;2023-07-13T12:46:21;98572.50;;;16.35;74.06
51081;BME280;37130;55.670;37.596;2023-07-13T12:48:52;98572.34;;;16.37;74.35
51081;BME280;37130;55.670;37.596;2023-07-13T12:51:39;98571.06;;;16.31;74.26
51081;BME280;37130;55.670;37.596;2023-07-13T12:54:18;98567.09;;;16.26;74.31
51081;BME280;37130;55.670;37.596;2023-07-13T12:56:49;98548.50;;;16.14;74.63
51081;BME280;37130;55.670;37.596;2023-07-13T12:59:21;98565.41;;;16.25;74.59
51081;BME280;37130;55.670;37.596;2023-07-13T13:01:50;98584.06;;;16.15;74.79
51081;BME280;37130;55.670;37.596;2023-07-13T13:04:18;98572.22;;;16.08;75.01
51081;BME280;37130;55.670;37.596;2023-07-13T13:06:59;98571.91;;;16.01;75.28
51081;BME280;37130;55.670;37.596;2023-07-13T13:09:27;98568.91;;;15.94;75.71
51081;BME280;37130;55.670;37.596;2023-07-13T13:11:55;98574.00;;;15.97;75.47
51081;BME280;37130;55.670;37.596;2023-07-13T13:14:23;98572.03;;;15.99;75.97
51081;BME280;37130;55.670;37.596;2023-07-13T13:16:51;98570.22;;;16.00;75.70
51081;BME280;37130;55.670;37.596;2023-07-13T13:19:25;98548.75;;;15.81;75.71
51081;BME280;37130;55.670;37.596;2023-07-13T13:21:54;98555.72;;;15.93;75.64
51081;BME280;37130;55.670;37.596;2023-07-13T13:24:25;98552.78;;;15.96;75.49
51081;BME280;37130;55.670;37.596;2023-07-13T13:26:54;98540.69;;;15.71;76.12
51081;BME280;37130;55.670;37.596;2023-07-13T13:29:25;98530.63;;;15.63;76.41
51081;BME280;37130;55.670;37.596;2023-07-13T13:31:54;98564.63;;;15.82;76.94
51081;BME280;37130;55.670;37.596;2023-07-13T13:34:24;98549.59;;;15.81;76.64
51081;BME280;37130;55.670;37.596;2023-07-13T13:36:53;98517.09;;;15.55;76.54